createdAt,value
2023-03-26T00:02:04.254Z,2.83
2023-03-26T00:04:34.586Z,2.90
2023-03-26T00:07:03.179Z,4.22
2023-03-26T00:09:31.110Z,2.37
2023-03-26T00:11:59.281Z,2.85
2023-03-26T00:14:27.199Z,4.03
2023-03-26T00:16:55.073Z,2.53
2023-03-26T00:19:23.286Z,3.80
2023-03-26T00:21:52.625Z,1.50
2023-03-26T00:24:20.452Z,3.58
2023-03-26T00:26:53.554Z,2.75
2023-03-26T00:29:28.008Z,1.60
2023-03-26T00:31:56.360Z,2.30
2023-03-26T00:34:25.008Z,2.83
2023-03-26T00:36:54.896Z,1.65
2023-03-26T00:39:24.166Z,2.65
2023-03-26T00:41:54.696Z,2.57
2023-03-26T00:44:23.590Z,2.15
2023-03-26T00:46:51.346Z,3.10
2023-03-26T00:49:19.194Z,1.02
2023-03-26T00:51:47.618Z,5.95
2023-03-26T00:54:15.776Z,2.27
2023-03-26T00:56:43.677Z,3.25
2023-03-26T00:59:12.348Z,1.85
2023-03-26T01:01:40.670Z,1.73
2023-03-26T01:04:38.600Z,3.08
2023-03-26T01:07:13.428Z,2.73
2023-03-26T01:09:45.288Z,2.47
2023-03-26T01:12:18.349Z,2.75
2023-03-26T01:14:54.872Z,1.60
2023-03-26T01:17:24.171Z,2.25
2023-03-26T01:20:13.331Z,1.43
2023-03-26T01:22:53.481Z,1.50
2023-03-26T01:25:22.223Z,2.22
2023-03-26T01:28:01.102Z,2.30
2023-03-26T01:30:37.957Z,2.17
2023-03-26T01:33:21.673Z,2.07
2023-03-26T01:35:55.065Z,2.45
2023-03-26T01:38:35.669Z,1.40
2023-03-26T01:41:34.752Z,1.30
2023-03-26T01:44:24.788Z,1.80
2023-03-26T01:46:53.597Z,2.17
2023-03-26T01:49:21.911Z,2.35
2023-03-26T01:51:51.350Z,1.60
2023-03-26T01:54:22.759Z,4.22
2023-03-26T01:57:24.406Z,3.60
2023-03-26T02:00:15.335Z,3.90
2023-03-26T02:02:59.260Z,2.92
2023-03-26T02:05:33.155Z,3.62
2023-03-26T02:08:09.604Z,3.25
2023-03-26T02:10:44.896Z,2.83
2023-03-26T02:13:13.860Z,2.40
2023-03-26T02:15:41.800Z,2.92
2023-03-26T02:18:13.553Z,3.45
2023-03-26T02:20:41.806Z,2.58
2023-03-26T02:23:09.989Z,2.47
2023-03-26T02:25:39.942Z,2.87
2023-03-26T02:28:08.150Z,1.58
2023-03-26T02:30:36.307Z,3.30
2023-03-26T02:33:04.811Z,2.03
2023-03-26T02:35:33.851Z,2.03
2023-03-26T02:38:02.053Z,2.07
2023-03-26T02:40:29.890Z,1.60
2023-03-26T02:42:58.810Z,1.33
2023-03-26T02:45:27.118Z,1.20
2023-03-26T02:47:56.139Z,2.08
2023-03-26T02:50:25.920Z,2.90
2023-03-26T02:52:54.493Z,2.28
2023-03-26T02:55:22.091Z,7.62
2023-03-26T02:57:50.606Z,1.35
2023-03-26T03:00:22.817Z,3.08
2023-03-26T03:02:53.008Z,3.27
2023-03-26T03:05:26.332Z,3.60
2023-03-26T03:07:58.089Z,2.37
2023-03-26T03:10:32.772Z,2.83
2023-03-26T03:13:01.232Z,3.28
2023-03-26T03:15:31.195Z,1.13
2023-03-26T03:17:58.749Z,1.70
2023-03-26T03:20:30.288Z,1.87
2023-03-26T03:22:58.011Z,1.73
2023-03-26T03:25:26.124Z,1.25
2023-03-26T03:27:54.387Z,5.87
2023-03-26T03:30:22.075Z,2.55
2023-03-26T03:32:54.423Z,2.42
2023-03-26T03:35:22.608Z,2.30
2023-03-26T03:37:51.057Z,3.55
2023-03-26T03:40:20.636Z,2.03
2023-03-26T03:42:49.225Z,3.78
2023-03-26T03:45:20.249Z,1.67
2023-03-26T03:47:49.152Z,2.22
2023-03-26T03:50:17.346Z,1.73
2023-03-26T03:52:46.416Z,2.33
2023-03-26T03:55:17.331Z,1.62
2023-03-26T03:57:45.803Z,2.03
2023-03-26T04:00:16.188Z,2.60
2023-03-26T04:02:46.279Z,2.85
2023-03-26T04:05:14.435Z,3.10
2023-03-26T04:07:43.959Z,1.85
2023-03-26T04:10:15.329Z,3.33
2023-03-26T04:12:48.699Z,1.00
2023-03-26T04:15:17.098Z,1.42
2023-03-26T04:17:49.490Z,2.00
2023-03-26T04:20:19.243Z,1.52
2023-03-26T04:22:47.324Z,2.20
2023-03-26T04:25:15.545Z,2.03
2023-03-26T04:27:44.448Z,2.03
2023-03-26T04:30:15.716Z,1.93
2023-03-26T04:32:44.698Z,2.25
2023-03-26T04:35:15.093Z,2.00
2023-03-26T04:37:44.417Z,3.20
2023-03-26T04:40:20.620Z,1.33
2023-03-26T04:42:48.751Z,1.90
2023-03-26T04:45:22.596Z,1.62
2023-03-26T04:47:53.258Z,1.55
2023-03-26T04:50:21.313Z,2.87
2023-03-26T04:52:49.272Z,2.97
2023-03-26T04:55:26.366Z,2.30
2023-03-26T04:58:00.160Z,3.75
2023-03-26T05:00:29.300Z,2.87
2023-03-26T05:03:01.521Z,3.85
2023-03-26T05:05:29.335Z,1.60
2023-03-26T05:07:58.445Z,2.00
2023-03-26T05:10:26.134Z,2.75
2023-03-26T05:12:54.444Z,1.10
2023-03-26T05:15:23.260Z,2.65
2023-03-26T05:17:51.924Z,4.65
2023-03-26T05:20:26.389Z,3.40
2023-03-26T05:22:54.333Z,1.27
2023-03-26T05:25:22.999Z,3.67
2023-03-26T05:27:50.546Z,3.00
2023-03-26T05:30:20.779Z,3.53
2023-03-26T05:32:49.645Z,2.97
2023-03-26T05:35:18.117Z,3.78
2023-03-26T05:37:46.961Z,1.58
2023-03-26T05:40:17.168Z,4.60
2023-03-26T05:42:45.609Z,6.53
2023-03-26T05:45:16.778Z,2.47
2023-03-26T05:47:44.506Z,3.75
2023-03-26T05:50:12.427Z,4.80
2023-03-26T05:52:41.468Z,2.33
2023-03-26T05:55:09.855Z,2.50
2023-03-26T05:57:42.725Z,6.20
2023-03-26T06:00:30.711Z,3.35
2023-03-26T06:02:58.884Z,6.85
2023-03-26T06:05:32.587Z,4.20
2023-03-26T06:08:02.692Z,3.70
2023-03-26T06:10:32.044Z,4.43
2023-03-26T06:12:59.978Z,7.82
2023-03-26T06:15:27.549Z,3.17
2023-03-26T06:17:55.555Z,5.37
2023-03-26T06:20:25.287Z,4.07
2023-03-26T06:22:53.523Z,4.00
2023-03-26T06:25:21.218Z,5.47
2023-03-26T06:27:51.496Z,2.50
2023-03-26T06:30:20.374Z,2.55
2023-03-26T06:32:48.779Z,4.55
2023-03-26T06:35:20.752Z,4.53
2023-03-26T06:37:48.510Z,2.85
2023-03-26T06:40:16.177Z,4.50
2023-03-26T06:43:07.746Z,4.65
2023-03-26T06:45:33.404Z,2.75
2023-03-26T06:48:04.220Z,3.97
2023-03-26T06:50:33.045Z,5.37
2023-03-26T06:53:01.379Z,4.90
2023-03-26T06:55:31.391Z,4.00
2023-03-26T06:57:59.858Z,3.40
2023-03-26T07:00:29.101Z,3.53
2023-03-26T07:03:05.247Z,5.07
2023-03-26T07:05:41.722Z,3.72
2023-03-26T07:08:10.826Z,4.85
2023-03-26T07:10:42.442Z,3.87
2023-03-26T07:13:10.749Z,2.60
2023-03-26T07:15:39.633Z,3.83
2023-03-26T07:18:10.521Z,3.60
2023-03-26T07:20:39.126Z,2.90
2023-03-26T07:23:07.403Z,5.50
2023-03-26T07:25:35.631Z,5.57
2023-03-26T07:28:12.358Z,3.97
2023-03-26T07:30:49.943Z,5.18
2023-03-26T07:33:47.884Z,3.75
2023-03-26T07:36:24.538Z,2.80
2023-03-26T07:38:52.494Z,3.10
2023-03-26T07:41:41.668Z,2.60
2023-03-26T07:44:42.809Z,5.47
2023-03-26T07:47:25.761Z,2.53
2023-03-26T07:50:00.775Z,2.45
2023-03-26T07:52:28.880Z,2.53
2023-03-26T07:54:56.993Z,3.37
2023-03-26T07:57:35.275Z,3.42
2023-03-26T08:00:14.220Z,8.63
2023-03-26T08:03:01.637Z,1.65
2023-03-26T08:05:39.011Z,4.17
2023-03-26T08:08:20.703Z,2.65
2023-03-26T08:11:08.745Z,5.07
2023-03-26T08:14:11.176Z,2.10
2023-03-26T08:16:52.082Z,3.95
2023-03-26T08:19:35.387Z,3.27
2023-03-26T08:22:13.719Z,3.40
2023-03-26T08:25:05.415Z,2.60
2023-03-26T08:27:37.906Z,2.78
2023-03-26T08:30:16.607Z,3.72
2023-03-26T08:33:05.223Z,8.80
2023-03-26T08:35:35.193Z,4.22
2023-03-26T08:38:03.352Z,5.45
2023-03-26T08:40:52.890Z,4.50
2023-03-26T08:43:52.384Z,4.75
2023-03-26T08:46:37.971Z,1.67
2023-03-26T08:49:33.454Z,3.58
2023-03-26T08:52:16.366Z,3.40
2023-03-26T08:55:00.014Z,3.35
2023-03-26T08:58:02.910Z,2.05
2023-03-26T09:00:37.004Z,3.40
2023-03-26T09:03:27.885Z,3.22
2023-03-26T09:05:58.537Z,2.75
2023-03-26T09:09:06.341Z,2.00
2023-03-26T09:11:50.009Z,4.40
2023-03-26T09:14:27.962Z,6.17
2023-03-26T09:17:06.218Z,4.10
2023-03-26T09:19:34.054Z,3.12
2023-03-26T09:22:08.292Z,3.05
2023-03-26T09:25:10.488Z,2.42
2023-03-26T09:27:44.938Z,3.50
2023-03-26T09:30:26.976Z,2.08
2023-03-26T09:33:17.018Z,2.05
2023-03-26T09:35:47.542Z,1.52
2023-03-26T09:38:24.604Z,3.22
2023-03-26T09:41:17.102Z,2.03
2023-03-26T09:44:12.746Z,3.47
2023-03-26T09:46:56.359Z,3.92
2023-03-26T09:49:43.082Z,2.45
2023-03-26T09:52:41.880Z,4.82
2023-03-26T09:55:27.689Z,3.83
2023-03-26T09:58:32.492Z,2.75
2023-03-26T10:01:19.252Z,3.03
2023-03-26T10:03:49.884Z,5.07
2023-03-26T10:06:41.849Z,4.82
2023-03-26T10:09:28.318Z,3.33
2023-03-26T10:12:13.855Z,2.10
2023-03-26T10:14:57.995Z,2.25
2023-03-26T10:17:38.917Z,4.15
2023-03-26T10:20:31.454Z,3.05
2023-03-26T10:23:18.590Z,5.53
2023-03-26T10:26:04.631Z,3.97
2023-03-26T10:28:38.004Z,5.90
2023-03-26T10:31:43.353Z,4.57
2023-03-26T10:34:28.591Z,6.10
2023-03-26T10:36:57.281Z,3.67
2023-03-26T10:39:46.476Z,3.47
2023-03-26T10:42:23.805Z,1.73
2023-03-26T10:45:14.840Z,1.92
2023-03-26T10:48:10.810Z,4.78
2023-03-26T10:50:59.930Z,3.10
2023-03-26T10:54:00.110Z,4.55
2023-03-26T10:56:47.146Z,4.47
2023-03-26T10:59:16.930Z,2.83
2023-03-26T11:02:04.830Z,3.72
2023-03-26T11:04:50.833Z,5.87
2023-03-26T11:07:28.783Z,4.28
2023-03-26T11:10:21.965Z,4.37
2023-03-26T11:13:11.233Z,3.67
2023-03-26T11:15:50.135Z,3.15
2023-03-26T11:18:24.957Z,3.90
2023-03-26T11:21:19.146Z,2.30
2023-03-26T11:24:18.168Z,2.05
2023-03-26T11:26:55.603Z,3.10
2023-03-26T11:29:56.614Z,3.17
2023-03-26T11:32:27.525Z,3.77
2023-03-26T11:34:58.420Z,3.60
2023-03-26T11:37:32.437Z,4.43
2023-03-26T11:40:06.374Z,2.40
2023-03-26T11:42:34.630Z,4.53
2023-03-26T11:45:15.028Z,3.93
2023-03-26T11:47:47.552Z,4.87
2023-03-26T11:50:26.191Z,3.97
2023-03-26T11:52:57.713Z,3.65
2023-03-26T11:55:25.536Z,4.20
2023-03-26T11:57:55.950Z,2.00
2023-03-26T12:00:27.510Z,2.33
2023-03-26T12:02:59.553Z,3.50
2023-03-26T12:05:36.610Z,3.85
2023-03-26T12:08:18.714Z,3.20
2023-03-26T12:10:51.663Z,1.63
2023-03-26T12:13:52.753Z,2.87
2023-03-26T12:16:21.776Z,2.30
2023-03-26T12:19:18.982Z,2.37
2023-03-26T12:21:49.827Z,2.58
2023-03-26T12:24:36.391Z,3.50
2023-03-26T12:27:28.461Z,4.00
2023-03-26T12:30:47.540Z,3.62
2023-03-26T12:33:27.524Z,2.03
2023-03-26T12:35:58.067Z,2.37
2023-03-26T12:38:30.387Z,1.53
2023-03-26T12:44:44.084Z,2.92
2023-03-26T12:44:53.355Z,2.17
2023-03-26T12:48:00.037Z,1.60
2023-03-26T12:50:17.224Z,1.52
2023-03-26T12:52:58.894Z,5.83
2023-03-26T12:55:51.891Z,1.48
2023-03-26T12:59:18.560Z,1.15
2023-03-26T13:02:04.669Z,2.78
2023-03-26T13:05:05.625Z,1.85
2023-03-26T13:07:53.616Z,1.33
2023-03-26T13:10:30.813Z,1.83
2023-03-26T13:13:18.825Z,1.65
2023-03-26T13:15:52.740Z,1.35
2023-03-26T13:18:38.459Z,2.22
2023-03-26T13:21:22.377Z,6.77
2023-03-26T13:24:16.761Z,2.97
2023-03-26T13:26:59.789Z,2.03
2023-03-26T13:29:56.425Z,1.10
2023-03-26T13:32:48.352Z,1.73
2023-03-26T13:35:28.153Z,1.92
2023-03-26T13:38:06.086Z,1.50
2023-03-26T13:40:51.933Z,1.60
2023-03-26T13:43:36.491Z,1.70
2023-03-26T13:46:04.281Z,1.03
2023-03-26T13:48:56.173Z,4.60
2023-03-26T13:51:25.080Z,2.20
2023-03-26T13:54:08.127Z,1.55
2023-03-26T13:56:48.073Z,1.62
2023-03-26T13:59:24.398Z,1.40
2023-03-26T14:01:58.631Z,2.12
2023-03-26T14:04:32.587Z,1.42
2023-03-26T14:07:15.691Z,3.75
2023-03-26T14:10:06.322Z,2.87
2023-03-26T14:13:06.509Z,1.20
2023-03-26T14:15:50.661Z,1.65
2023-03-26T14:18:42.944Z,2.03
2023-03-26T14:21:36.577Z,1.52
2023-03-26T14:24:12.834Z,2.35
2023-03-26T14:26:54.527Z,1.70
2023-03-26T14:29:29.880Z,2.00
2023-03-26T14:32:06.963Z,2.67
2023-03-26T14:34:51.198Z,2.65
2023-03-26T14:37:43.565Z,1.55
2023-03-26T14:40:37.605Z,2.07
2023-03-26T14:43:36.623Z,1.85
2023-03-26T14:46:07.576Z,2.40
2023-03-26T14:48:38.339Z,2.45
2023-03-26T14:51:21.339Z,3.22
2023-03-26T14:53:53.550Z,2.07
2023-03-26T14:56:24.431Z,1.75
2023-03-26T14:59:29.350Z,1.92
2023-03-26T15:02:09.211Z,2.20
2023-03-26T15:04:58.705Z,1.92
2023-03-26T15:07:48.760Z,1.10
2023-03-26T15:10:36.420Z,2.42
2023-03-26T15:13:10.505Z,1.48
2023-03-26T15:15:44.173Z,1.87
2023-03-26T15:18:25.490Z,1.87
2023-03-26T15:21:25.154Z,1.20
2023-03-26T15:24:21.944Z,1.73
2023-03-26T15:27:20.097Z,1.92
2023-03-26T15:30:35.778Z,2.33
2023-03-26T15:33:18.016Z,1.20
2023-03-26T15:35:57.885Z,1.10
2023-03-26T15:38:46.471Z,2.33
2023-03-26T15:41:31.666Z,1.60
2023-03-26T15:46:50.039Z,3.25
2023-03-26T15:49:36.816Z,1.33
2023-03-26T15:52:28.372Z,1.35
2023-03-26T15:55:17.920Z,2.15
2023-03-26T15:58:09.723Z,2.10
2023-03-26T16:00:47.884Z,4.00
2023-03-26T16:03:25.619Z,14.43
2023-03-26T16:06:41.665Z,4.43
2023-03-26T16:09:20.253Z,2.90
2023-03-26T16:11:57.627Z,4.00
2023-03-26T16:14:35.074Z,3.75
2023-03-26T16:17:06.473Z,2.20
2023-03-26T16:19:59.458Z,4.78
2023-03-26T16:22:42.394Z,5.93
2023-03-26T16:25:28.549Z,16.70
2023-03-26T16:28:27.094Z,7.15
2023-03-26T16:31:36.700Z,9.77
2023-03-26T16:34:21.443Z,24.90
2023-03-26T16:36:54.148Z,13.43
2023-03-26T16:39:22.888Z,11.60
2023-03-26T16:42:29.272Z,19.85
2023-03-26T16:45:09.497Z,17.07
2023-03-26T16:47:45.557Z,11.63
2023-03-26T16:50:35.682Z,9.25
2023-03-26T16:53:29.917Z,10.85
2023-03-26T16:56:28.084Z,9.07
2023-03-26T16:59:00.534Z,14.50
2023-03-26T17:01:35.919Z,11.50
2023-03-26T17:04:12.935Z,12.82
2023-03-26T17:06:57.640Z,16.42
2023-03-26T17:09:31.732Z,18.10
2023-03-26T17:12:33.648Z,11.53
2023-03-26T17:15:12.077Z,12.85
2023-03-26T17:18:04.584Z,7.53
2023-03-26T17:20:43.268Z,9.68
2023-03-26T17:23:36.408Z,6.90
2023-03-26T17:26:23.276Z,5.23
2023-03-26T17:29:06.842Z,4.65
2023-03-26T17:31:53.327Z,5.45
2023-03-26T17:34:40.187Z,5.57
2023-03-26T17:37:11.490Z,6.32
2023-03-26T17:39:39.198Z,5.07
2023-03-26T17:42:15.976Z,5.97
2023-03-26T17:44:45.648Z,6.85
2023-03-26T17:47:22.618Z,5.72
2023-03-26T17:49:58.321Z,8.27
2023-03-26T17:52:48.042Z,8.10
2023-03-26T17:55:18.671Z,10.40
2023-03-26T17:57:50.482Z,17.52
2023-03-26T18:00:23.979Z,15.20
2023-03-26T18:02:58.103Z,9.75
2023-03-26T18:05:29.085Z,7.60
2023-03-26T18:08:13.733Z,7.20
2023-03-26T18:11:02.798Z,5.60
2023-03-26T18:13:30.565Z,5.82
2023-03-26T18:16:17.261Z,4.32
2023-03-26T18:18:57.034Z,3.40
2023-03-26T18:21:31.753Z,4.55
2023-03-26T18:24:00.097Z,5.82
2023-03-26T18:26:46.756Z,7.82
2023-03-26T18:29:33.669Z,8.95
2023-03-26T18:32:09.117Z,8.77
2023-03-26T18:34:52.499Z,6.12
2023-03-26T18:37:30.103Z,10.82
2023-03-26T18:40:16.699Z,14.07
2023-03-26T18:42:47.323Z,14.35
2023-03-26T18:45:33.643Z,27.23
2023-03-26T18:48:04.178Z,17.62
2023-03-26T18:50:36.948Z,15.88
2023-03-26T18:53:07.175Z,16.23
2023-03-26T18:55:39.667Z,12.45
2023-03-26T18:58:20.855Z,7.17
2023-03-26T19:00:52.866Z,11.48
2023-03-26T19:03:24.244Z,9.27
2023-03-26T19:05:53.907Z,8.02
2023-03-26T19:08:23.821Z,5.35
2023-03-26T19:10:52.636Z,4.40
2023-03-26T19:13:21.628Z,5.62
2023-03-26T19:15:51.542Z,14.23
2023-03-26T19:18:22.447Z,8.77
2023-03-26T19:20:53.741Z,9.38
2023-03-26T19:23:26.559Z,7.77
2023-03-26T19:25:56.154Z,4.95
2023-03-26T19:28:27.340Z,4.75
2023-03-26T19:30:58.357Z,2.95
2023-03-26T19:33:33.747Z,4.50
2023-03-26T19:36:15.737Z,2.93
2023-03-26T19:38:47.053Z,3.95
2023-03-26T19:41:44.381Z,5.60
2023-03-26T19:44:25.889Z,4.93
2023-03-26T19:47:23.505Z,3.78
2023-03-26T19:50:24.881Z,5.00
2023-03-26T19:53:16.077Z,3.25
2023-03-26T19:55:55.719Z,3.05
2023-03-26T19:58:26.268Z,2.53
2023-03-26T20:00:56.169Z,2.78
2023-03-26T20:03:30.808Z,3.40
2023-03-26T20:05:58.438Z,4.22
2023-03-26T20:08:29.161Z,4.53
2023-03-26T20:10:58.047Z,4.43
2023-03-26T20:13:26.712Z,4.45
2023-03-26T20:16:10.639Z,7.03
2023-03-26T20:18:38.756Z,4.72
2023-03-26T20:21:13.239Z,11.05
2023-03-26T20:23:41.347Z,5.75
2023-03-26T20:26:13.624Z,4.70
2023-03-26T20:28:48.168Z,5.80
2023-03-26T20:31:24.400Z,5.68
2023-03-26T20:33:53.227Z,6.80
2023-03-26T20:36:33.985Z,5.60
2023-03-26T20:39:07.864Z,4.53
2023-03-26T20:41:38.059Z,5.67
2023-03-26T20:44:15.849Z,4.90
2023-03-26T20:46:44.426Z,5.00
2023-03-26T20:49:13.022Z,4.68
2023-03-26T20:51:42.035Z,4.97
2023-03-26T20:54:21.951Z,4.33
2023-03-26T20:56:50.409Z,4.40
2023-03-26T20:59:27.933Z,9.15
2023-03-26T21:01:57.548Z,7.62
2023-03-26T21:04:26.572Z,5.57
2023-03-26T21:07:00.277Z,3.07
2023-03-26T21:09:35.464Z,4.32
2023-03-26T21:12:03.234Z,2.05
2023-03-26T21:14:41.264Z,4.18
2023-03-26T21:17:17.960Z,4.45
2023-03-26T21:19:47.145Z,2.53
2023-03-26T21:22:52.970Z,2.83
2023-03-26T21:25:27.337Z,3.95
2023-03-26T21:28:24.015Z,2.92
2023-03-26T21:30:55.805Z,3.55
2023-03-26T21:33:23.642Z,1.87
2023-03-26T21:35:52.357Z,2.55
2023-03-26T21:38:24.698Z,2.05
2023-03-26T21:40:58.709Z,2.53
2023-03-26T21:43:27.322Z,2.22
2023-03-26T21:45:57.460Z,2.70
2023-03-26T21:48:25.662Z,1.52
2023-03-26T21:50:53.885Z,2.50
2023-03-26T21:53:22.553Z,1.98
2023-03-26T21:56:22.076Z,1.75
2023-03-26T21:58:55.592Z,1.80
2023-03-26T22:01:54.456Z,2.08
2023-03-26T22:04:37.333Z,1.50
2023-03-26T22:07:11.729Z,2.42
2023-03-26T22:09:41.473Z,1.92
2023-03-26T22:12:10.547Z,2.10
2023-03-26T22:14:38.673Z,2.65
2023-03-26T22:17:06.882Z,2.30
2023-03-26T22:19:35.925Z,1.50
2023-03-26T22:22:03.584Z,2.90
2023-03-26T22:24:32.130Z,1.57
2023-03-26T22:26:59.676Z,0.90
2023-03-26T22:29:27.410Z,1.75
2023-03-26T22:31:55.820Z,2.97
2023-03-26T22:34:23.745Z,2.25
2023-03-26T22:36:52.025Z,2.70
2023-03-26T22:39:19.969Z,1.92
2023-03-26T22:41:47.459Z,2.15
2023-03-26T22:44:20.128Z,2.92
2023-03-26T22:46:52.466Z,2.37
2023-03-26T22:49:20.352Z,1.87
2023-03-26T22:51:48.228Z,1.85
2023-03-26T22:54:15.765Z,1.62
2023-03-26T22:56:43.671Z,2.50
2023-03-26T22:59:11.594Z,3.55
2023-03-26T23:01:39.179Z,1.53
2023-03-26T23:04:07.104Z,4.05
2023-03-26T23:06:34.976Z,3.37
2023-03-26T23:09:03.605Z,2.45
2023-03-26T23:11:31.179Z,1.87
2023-03-26T23:13:59.332Z,2.47
2023-03-26T23:16:27.452Z,1.75
2023-03-26T23:18:55.431Z,2.12
2023-03-26T23:21:23.792Z,3.72
2023-03-26T23:23:53.956Z,4.03
2023-03-26T23:26:22.055Z,3.33
2023-03-26T23:28:51.136Z,3.15
2023-03-26T23:31:18.739Z,2.95
2023-03-26T23:33:46.786Z,5.22
2023-03-26T23:36:18.197Z,3.20
2023-03-26T23:38:50.905Z,4.10
2023-03-26T23:41:21.658Z,4.87
2023-03-26T23:43:56.521Z,5.37
2023-03-26T23:46:34.683Z,2.12
2023-03-26T23:49:03.727Z,3.05
2023-03-26T23:51:32.445Z,3.03
2023-03-26T23:54:00.906Z,4.90
2023-03-26T23:56:30.054Z,2.97
2023-03-26T23:58:59.288Z,3.80
